sensor_id;sensor_type;location;lat;lon;timestamp;P1;durP1;ratioP1;P2;durP2;ratioP2
66270;SDS011;53063;39.614;8.814;2023-12-20T00:01:38;13.82;;;7.75;;
66270;SDS011;53063;39.614;8.814;2023-12-20T00:04:04;12.27;;;7.13;;
66270;SDS011;53063;39.614;8.814;2023-12-20T00:06:31;13.48;;;7.13;;
66270;SDS011;53063;39.614;8.814;2023-12-20T00:08:57;10.52;;;5.80;;
66270;SDS011;53063;39.614;8.814;2023-12-20T00:11:23;16.80;;;6.70;;
66270;SDS011;53063;39.614;8.814;2023-12-20T00:13:49;10.50;;;5.85;;
66270;SDS011;53063;39.614;8.814;2023-12-20T00:16:15;13.57;;;6.18;;
66270;SDS011;53063;39.614;8.814;2023-12-20T00:18:41;10.43;;;5.60;;
66270;SDS011;53063;39.614;8.814;2023-12-20T00:21:07;12.60;;;5.93;;
66270;SDS011;53063;39.614;8.814;2023-12-20T00:23:32;13.05;;;6.72;;
66270;SDS011;53063;39.614;8.814;2023-12-20T00:25:58;12.18;;;6.63;;
66270;SDS011;53063;39.614;8.814;2023-12-20T00:28:24;12.93;;;5.90;;
66270;SDS011;53063;39.614;8.814;2023-12-20T00:30:50;9.93;;;5.60;;
66270;SDS011;53063;39.614;8.814;2023-12-20T00:33:16;10.45;;;5.57;;
66270;SDS011;53063;39.614;8.814;2023-12-20T00:35:42;10.00;;;5.45;;
66270;SDS011;53063;39.614;8.814;2023-12-20T00:38:08;13.02;;;5.25;;
66270;SDS011;53063;39.614;8.814;2023-12-20T00:40:35;13.27;;;7.13;;
66270;SDS011;53063;39.614;8.814;2023-12-20T00:43:01;12.68;;;7.05;;
66270;SDS011;53063;39.614;8.814;2023-12-20T00:45:27;15.90;;;7.13;;
66270;SDS011;53063;39.614;8.814;2023-12-20T00:47:52;16.27;;;8.10;;
66270;SDS011;53063;39.614;8.814;2023-12-20T00:50:18;17.48;;;7.10;;
66270;SDS011;53063;39.614;8.814;2023-12-20T00:52:47;14.95;;;7.10;;
66270;SDS011;53063;39.614;8.814;2023-12-20T00:55:13;11.23;;;6.50;;
66270;SDS011;53063;39.614;8.814;2023-12-20T00:57:39;12.55;;;5.82;;
66270;SDS011;53063;39.614;8.814;2023-12-20T01:00:05;9.45;;;5.80;;
66270;SDS011;53063;39.614;8.814;2023-12-20T01:02:31;11.93;;;5.72;;
66270;SDS011;53063;39.614;8.814;2023-12-20T01:04:57;12.82;;;6.40;;
66270;SDS011;53063;39.614;8.814;2023-12-20T01:07:23;11.25;;;6.85;;
66270;SDS011;53063;39.614;8.814;2023-12-20T01:09:49;12.48;;;6.22;;
66270;SDS011;53063;39.614;8.814;2023-12-20T01:12:15;12.52;;;6.53;;
66270;SDS011;53063;39.614;8.814;2023-12-20T01:14:41;10.88;;;5.82;;
66270;SDS011;53063;39.614;8.814;2023-12-20T01:17:07;10.57;;;5.35;;
66270;SDS011;53063;39.614;8.814;2023-12-20T01:19:33;10.98;;;5.32;;
66270;SDS011;53063;39.614;8.814;2023-12-20T01:21:59;7.43;;;4.22;;
66270;SDS011;53063;39.614;8.814;2023-12-20T01:24:25;8.45;;;4.25;;
66270;SDS011;53063;39.614;8.814;2023-12-20T01:26:51;7.32;;;4.00;;
66270;SDS011;53063;39.614;8.814;2023-12-20T01:29:17;5.25;;;3.45;;
66270;SDS011;53063;39.614;8.814;2023-12-20T01:31:43;5.68;;;3.10;;
66270;SDS011;53063;39.614;8.814;2023-12-20T01:34:09;4.65;;;2.90;;
66270;SDS011;53063;39.614;8.814;2023-12-20T01:36:34;6.78;;;3.28;;
66270;SDS011;53063;39.614;8.814;2023-12-20T01:39:00;5.50;;;3.22;;
66270;SDS011;53063;39.614;8.814;2023-12-20T01:41:26;6.47;;;3.45;;
66270;SDS011;53063;39.614;8.814;2023-12-20T01:43:52;7.25;;;3.63;;
66270;SDS011;53063;39.614;8.814;2023-12-20T01:46:18;5.47;;;3.42;;
66270;SDS011;53063;39.614;8.814;2023-12-20T01:48:46;6.93;;;3.38;;
66270;SDS011;53063;39.614;8.814;2023-12-20T01:51:13;5.18;;;3.33;;
66270;SDS011;53063;39.614;8.814;2023-12-20T01:53:39;9.43;;;4.45;;
66270;SDS011;53063;39.614;8.814;2023-12-20T01:56:06;9.25;;;4.15;;
66270;SDS011;53063;39.614;8.814;2023-12-20T01:58:33;5.53;;;3.72;;
66270;SDS011;53063;39.614;8.814;2023-12-20T02:00:59;8.13;;;3.67;;
66270;SDS011;53063;39.614;8.814;2023-12-20T02:03:25;7.97;;;3.47;;
66270;SDS011;53063;39.614;8.814;2023-12-20T02:05:52;6.57;;;3.47;;
66270;SDS011;53063;39.614;8.814;2023-12-20T02:08:18;5.00;;;3.28;;
66270;SDS011;53063;39.614;8.814;2023-12-20T02:10:44;5.20;;;3.28;;
66270;SDS011;53063;39.614;8.814;2023-12-20T02:13:10;5.97;;;3.20;;
66270;SDS011;53063;39.614;8.814;2023-12-20T02:15:36;7.50;;;3.53;;
66270;SDS011;53063;39.614;8.814;2023-12-20T02:18:02;6.13;;;3.33;;
66270;SDS011;53063;39.614;8.814;2023-12-20T02:20:29;9.45;;;3.28;;
66270;SDS011;53063;39.614;8.814;2023-12-20T02:22:55;8.18;;;4.63;;
66270;SDS011;53063;39.614;8.814;2023-12-20T02:25:21;9.88;;;6.00;;
66270;SDS011;53063;39.614;8.814;2023-12-20T02:27:47;11.30;;;4.88;;
66270;SDS011;53063;39.614;8.814;2023-12-20T02:30:14;7.05;;;3.55;;
66270;SDS011;53063;39.614;8.814;2023-12-20T02:32:40;6.43;;;3.45;;
66270;SDS011;53063;39.614;8.814;2023-12-20T02:35:06;6.40;;;2.92;;
66270;SDS011;53063;39.614;8.814;2023-12-20T02:37:32;4.93;;;2.95;;
66270;SDS011;53063;39.614;8.814;2023-12-20T02:39:59;7.00;;;3.08;;
66270;SDS011;53063;39.614;8.814;2023-12-20T02:42:25;7.30;;;3.25;;
66270;SDS011;53063;39.614;8.814;2023-12-20T02:44:51;6.78;;;3.53;;
66270;SDS011;53063;39.614;8.814;2023-12-20T02:47:17;4.70;;;3.33;;
66270;SDS011;53063;39.614;8.814;2023-12-20T02:49:43;6.15;;;3.30;;
66270;SDS011;53063;39.614;8.814;2023-12-20T02:52:09;7.00;;;3.50;;
66270;SDS011;53063;39.614;8.814;2023-12-20T02:54:34;5.68;;;3.00;;
66270;SDS011;53063;39.614;8.814;2023-12-20T02:57:00;7.38;;;3.42;;
66270;SDS011;53063;39.614;8.814;2023-12-20T02:59:26;4.72;;;2.83;;
66270;SDS011;53063;39.614;8.814;2023-12-20T03:01:52;5.25;;;2.78;;
66270;SDS011;53063;39.614;8.814;2023-12-20T03:04:18;4.63;;;2.90;;
66270;SDS011;53063;39.614;8.814;2023-12-20T03:06:44;4.20;;;2.72;;
66270;SDS011;53063;39.614;8.814;2023-12-20T03:09:10;6.20;;;3.15;;
66270;SDS011;53063;39.614;8.814;2023-12-20T03:11:35;6.57;;;3.13;;
66270;SDS011;53063;39.614;8.814;2023-12-20T03:14:01;5.63;;;3.30;;
66270;SDS011;53063;39.614;8.814;2023-12-20T03:16:27;6.25;;;3.00;;
66270;SDS011;53063;39.614;8.814;2023-12-20T03:18:53;6.72;;;2.92;;
66270;SDS011;53063;39.614;8.814;2023-12-20T03:21:19;4.38;;;2.53;;
66270;SDS011;53063;39.614;8.814;2023-12-20T03:23:45;8.27;;;3.38;;
66270;SDS011;53063;39.614;8.814;2023-12-20T03:26:11;5.60;;;2.83;;
66270;SDS011;53063;39.614;8.814;2023-12-20T03:28:37;6.55;;;2.90;;
66270;SDS011;53063;39.614;8.814;2023-12-20T03:31:03;4.28;;;2.72;;
66270;SDS011;53063;39.614;8.814;2023-12-20T03:33:29;5.40;;;3.42;;
66270;SDS011;53063;39.614;8.814;2023-12-20T03:35:55;4.30;;;2.75;;
66270;SDS011;53063;39.614;8.814;2023-12-20T03:38:21;6.47;;;2.83;;
66270;SDS011;53063;39.614;8.814;2023-12-20T03:40:49;6.78;;;3.17;;
66270;SDS011;53063;39.614;8.814;2023-12-20T03:43:15;4.63;;;2.80;;
66270;SDS011;53063;39.614;8.814;2023-12-20T03:45:44;4.40;;;2.50;;
66270;SDS011;53063;39.614;8.814;2023-12-20T03:48:11;7.65;;;2.90;;
66270;SDS011;53063;39.614;8.814;2023-12-20T03:50:37;3.85;;;2.53;;
66270;SDS011;53063;39.614;8.814;2023-12-20T03:53:03;4.75;;;2.55;;
66270;SDS011;53063;39.614;8.814;2023-12-20T03:55:29;4.70;;;2.67;;
66270;SDS011;53063;39.614;8.814;2023-12-20T03:57:55;4.70;;;2.67;;
66270;SDS011;53063;39.614;8.814;2023-12-20T04:00:20;6.18;;;2.70;;
66270;SDS011;53063;39.614;8.814;2023-12-20T04:02:46;4.80;;;2.38;;
66270;SDS011;53063;39.614;8.814;2023-12-20T04:05:12;5.05;;;2.78;;
66270;SDS011;53063;39.614;8.814;2023-12-20T04:07:38;6.00;;;2.80;;
66270;SDS011;53063;39.614;8.814;2023-12-20T04:10:04;4.80;;;2.63;;
66270;SDS011;53063;39.614;8.814;2023-12-20T04:12:31;5.85;;;2.53;;
66270;SDS011;53063;39.614;8.814;2023-12-20T04:14:57;7.90;;;3.00;;
66270;SDS011;53063;39.614;8.814;2023-12-20T04:17:23;3.70;;;2.70;;
66270;SDS011;53063;39.614;8.814;2023-12-20T04:19:49;4.65;;;2.85;;
66270;SDS011;53063;39.614;8.814;2023-12-20T04:22:16;6.70;;;3.05;;
66270;SDS011;53063;39.614;8.814;2023-12-20T04:24:44;6.35;;;2.80;;
66270;SDS011;53063;39.614;8.814;2023-12-20T04:27:10;8.80;;;3.80;;
66270;SDS011;53063;39.614;8.814;2023-12-20T04:29:36;6.50;;;3.10;;
66270;SDS011;53063;39.614;8.814;2023-12-20T04:32:02;6.20;;;3.15;;
66270;SDS011;53063;39.614;8.814;2023-12-20T04:34:29;8.07;;;3.53;;
66270;SDS011;53063;39.614;8.814;2023-12-20T04:36:54;6.07;;;3.50;;
66270;SDS011;53063;39.614;8.814;2023-12-20T04:39:20;6.00;;;3.25;;
66270;SDS011;53063;39.614;8.814;2023-12-20T04:41:46;6.28;;;2.80;;
66270;SDS011;53063;39.614;8.814;2023-12-20T04:44:13;7.07;;;3.20;;
66270;SDS011;53063;39.614;8.814;2023-12-20T04:46:39;3.63;;;2.95;;
66270;SDS011;53063;39.614;8.814;2023-12-20T04:49:05;6.15;;;2.92;;
66270;SDS011;53063;39.614;8.814;2023-12-20T04:51:34;4.25;;;2.60;;
66270;SDS011;53063;39.614;8.814;2023-12-20T04:54:01;3.72;;;2.00;;
66270;SDS011;53063;39.614;8.814;2023-12-20T04:56:27;3.50;;;2.03;;
66270;SDS011;53063;39.614;8.814;2023-12-20T04:58:53;4.70;;;2.47;;
66270;SDS011;53063;39.614;8.814;2023-12-20T05:01:19;4.97;;;2.47;;
66270;SDS011;53063;39.614;8.814;2023-12-20T05:03:45;7.20;;;3.15;;
66270;SDS011;53063;39.614;8.814;2023-12-20T05:06:11;3.92;;;2.97;;
66270;SDS011;53063;39.614;8.814;2023-12-20T05:08:37;6.53;;;3.47;;
66270;SDS011;53063;39.614;8.814;2023-12-20T05:11:03;6.47;;;3.38;;
66270;SDS011;53063;39.614;8.814;2023-12-20T05:13:30;5.07;;;3.05;;
66270;SDS011;53063;39.614;8.814;2023-12-20T05:15:56;6.88;;;3.58;;
66270;SDS011;53063;39.614;8.814;2023-12-20T05:18:21;5.95;;;2.92;;
66270;SDS011;53063;39.614;8.814;2023-12-20T05:20:48;5.68;;;2.92;;
66270;SDS011;53063;39.614;8.814;2023-12-20T05:23:15;5.63;;;2.95;;
66270;SDS011;53063;39.614;8.814;2023-12-20T05:25:42;4.68;;;3.13;;
66270;SDS011;53063;39.614;8.814;2023-12-20T05:28:08;4.65;;;3.08;;
66270;SDS011;53063;39.614;8.814;2023-12-20T05:30:34;6.38;;;3.80;;
66270;SDS011;53063;39.614;8.814;2023-12-20T05:33:00;6.97;;;4.13;;
66270;SDS011;53063;39.614;8.814;2023-12-20T05:35:26;6.15;;;3.47;;
66270;SDS011;53063;39.614;8.814;2023-12-20T05:37:52;5.68;;;3.42;;
66270;SDS011;53063;39.614;8.814;2023-12-20T05:40:18;6.50;;;2.88;;
66270;SDS011;53063;39.614;8.814;2023-12-20T05:42:44;6.57;;;3.35;;
66270;SDS011;53063;39.614;8.814;2023-12-20T05:45:09;4.38;;;3.03;;
66270;SDS011;53063;39.614;8.814;2023-12-20T05:47:36;7.93;;;3.78;;
66270;SDS011;53063;39.614;8.814;2023-12-20T05:50:02;6.22;;;3.42;;
66270;SDS011;53063;39.614;8.814;2023-12-20T05:52:29;7.32;;;3.70;;
66270;SDS011;53063;39.614;8.814;2023-12-20T05:54:55;5.18;;;3.75;;
66270;SDS011;53063;39.614;8.814;2023-12-20T05:57:23;7.63;;;3.70;;
66270;SDS011;53063;39.614;8.814;2023-12-20T05:59:49;5.72;;;3.97;;
66270;SDS011;53063;39.614;8.814;2023-12-20T06:02:15;9.95;;;4.30;;
66270;SDS011;53063;39.614;8.814;2023-12-20T06:04:44;5.70;;;3.63;;
66270;SDS011;53063;39.614;8.814;2023-12-20T06:07:13;10.45;;;3.95;;
66270;SDS011;53063;39.614;8.814;2023-12-20T06:09:40;8.80;;;4.25;;
66270;SDS011;53063;39.614;8.814;2023-12-20T06:12:06;9.30;;;4.32;;
66270;SDS011;53063;39.614;8.814;2023-12-20T06:14:33;9.82;;;5.03;;
66270;SDS011;53063;39.614;8.814;2023-12-20T06:17:00;14.82;;;7.43;;
66270;SDS011;53063;39.614;8.814;2023-12-20T06:19:29;36.30;;;12.98;;
66270;SDS011;53063;39.614;8.814;2023-12-20T06:21:55;35.38;;;12.68;;
66270;SDS011;53063;39.614;8.814;2023-12-20T06:24:21;30.88;;;12.82;;
66270;SDS011;53063;39.614;8.814;2023-12-20T06:26:46;32.75;;;12.05;;
66270;SDS011;53063;39.614;8.814;2023-12-20T06:29:12;27.13;;;11.65;;
66270;SDS011;53063;39.614;8.814;2023-12-20T06:31:38;26.85;;;11.77;;
66270;SDS011;53063;39.614;8.814;2023-12-20T06:34:04;18.30;;;7.57;;
66270;SDS011;53063;39.614;8.814;2023-12-20T06:36:30;17.25;;;6.72;;
66270;SDS011;53063;39.614;8.814;2023-12-20T06:38:56;20.73;;;8.07;;
66270;SDS011;53063;39.614;8.814;2023-12-20T06:41:23;21.15;;;8.77;;
66270;SDS011;53063;39.614;8.814;2023-12-20T06:43:50;20.35;;;8.43;;
66270;SDS011;53063;39.614;8.814;2023-12-20T06:46:16;12.73;;;6.75;;
66270;SDS011;53063;39.614;8.814;2023-12-20T06:48:42;12.40;;;6.40;;
66270;SDS011;53063;39.614;8.814;2023-12-20T06:51:11;12.75;;;5.60;;
66270;SDS011;53063;39.614;8.814;2023-12-20T06:53:39;10.20;;;5.53;;
66270;SDS011;53063;39.614;8.814;2023-12-20T06:56:05;11.85;;;6.05;;
66270;SDS011;53063;39.614;8.814;2023-12-20T06:58:32;10.27;;;6.20;;
66270;SDS011;53063;39.614;8.814;2023-12-20T07:00:58;16.33;;;8.05;;
66270;SDS011;53063;39.614;8.814;2023-12-20T07:03:24;22.75;;;11.18;;
66270;SDS011;53063;39.614;8.814;2023-12-20T07:05:50;21.52;;;12.07;;
66270;SDS011;53063;39.614;8.814;2023-12-20T07:08:16;27.63;;;12.95;;
66270;SDS011;53063;39.614;8.814;2023-12-20T07:10:42;24.17;;;13.15;;
66270;SDS011;53063;39.614;8.814;2023-12-20T07:13:07;15.73;;;9.15;;
66270;SDS011;53063;39.614;8.814;2023-12-20T07:15:33;27.88;;;11.93;;
66270;SDS011;53063;39.614;8.814;2023-12-20T07:18:01;26.92;;;13.38;;
66270;SDS011;53063;39.614;8.814;2023-12-20T07:20:26;30.75;;;17.40;;
66270;SDS011;53063;39.614;8.814;2023-12-20T07:22:53;40.80;;;22.40;;
66270;SDS011;53063;39.614;8.814;2023-12-20T07:25:19;28.95;;;15.82;;
66270;SDS011;53063;39.614;8.814;2023-12-20T07:27:45;28.08;;;18.67;;
66270;SDS011;53063;39.614;8.814;2023-12-20T07:30:11;37.45;;;22.77;;
66270;SDS011;53063;39.614;8.814;2023-12-20T07:32:37;36.30;;;19.25;;
66270;SDS011;53063;39.614;8.814;2023-12-20T07:35:03;38.38;;;20.48;;
66270;SDS011;53063;39.614;8.814;2023-12-20T07:37:30;38.88;;;22.20;;
66270;SDS011;53063;39.614;8.814;2023-12-20T07:39:56;48.70;;;23.88;;
66270;SDS011;53063;39.614;8.814;2023-12-20T07:42:22;60.03;;;30.08;;
66270;SDS011;53063;39.614;8.814;2023-12-20T07:44:48;53.00;;;25.73;;
66270;SDS011;53063;39.614;8.814;2023-12-20T07:47:14;48.55;;;26.80;;
66270;SDS011;53063;39.614;8.814;2023-12-20T07:49:43;42.78;;;23.60;;
66270;SDS011;53063;39.614;8.814;2023-12-20T07:52:09;33.55;;;17.08;;
66270;SDS011;53063;39.614;8.814;2023-12-20T07:54:35;19.83;;;8.93;;
66270;SDS011;53063;39.614;8.814;2023-12-20T07:57:01;20.65;;;10.65;;
66270;SDS011;53063;39.614;8.814;2023-12-20T07:59:26;36.88;;;20.05;;
66270;SDS011;53063;39.614;8.814;2023-12-20T08:01:52;32.13;;;17.63;;
66270;SDS011;53063;39.614;8.814;2023-12-20T08:04:18;35.15;;;21.98;;
66270;SDS011;53063;39.614;8.814;2023-12-20T08:06:45;37.03;;;19.45;;
66270;SDS011;53063;39.614;8.814;2023-12-20T08:09:11;35.78;;;17.13;;
66270;SDS011;53063;39.614;8.814;2023-12-20T08:11:37;25.15;;;13.80;;
66270;SDS011;53063;39.614;8.814;2023-12-20T08:14:03;22.13;;;12.38;;
66270;SDS011;53063;39.614;8.814;2023-12-20T08:16:28;25.45;;;13.45;;
66270;SDS011;53063;39.614;8.814;2023-12-20T08:18:54;23.25;;;13.18;;
66270;SDS011;53063;39.614;8.814;2023-12-20T08:21:20;45.15;;;21.90;;
66270;SDS011;53063;39.614;8.814;2023-12-20T08:23:47;27.27;;;14.32;;
66270;SDS011;53063;39.614;8.814;2023-12-20T08:26:14;21.25;;;11.88;;
66270;SDS011;53063;39.614;8.814;2023-12-20T08:28:46;18.60;;;9.65;;
66270;SDS011;53063;39.614;8.814;2023-12-20T08:31:15;15.90;;;7.43;;
66270;SDS011;53063;39.614;8.814;2023-12-20T08:33:45;12.45;;;6.15;;
66270;SDS011;53063;39.614;8.814;2023-12-20T08:36:13;14.68;;;6.63;;
66270;SDS011;53063;39.614;8.814;2023-12-20T08:38:39;13.85;;;6.93;;
66270;SDS011;53063;39.614;8.814;2023-12-20T08:41:06;9.00;;;4.78;;
66270;SDS011;53063;39.614;8.814;2023-12-20T08:43:32;13.70;;;5.72;;
66270;SDS011;53063;39.614;8.814;2023-12-20T08:46:00;9.43;;;4.20;;
66270;SDS011;53063;39.614;8.814;2023-12-20T08:48:26;6.63;;;4.28;;
66270;SDS011;53063;39.614;8.814;2023-12-20T08:50:52;9.57;;;5.60;;
66270;SDS011;53063;39.614;8.814;2023-12-20T08:53:18;17.13;;;10.60;;
66270;SDS011;53063;39.614;8.814;2023-12-20T08:55:44;17.40;;;9.85;;
66270;SDS011;53063;39.614;8.814;2023-12-20T08:58:11;13.48;;;7.55;;
66270;SDS011;53063;39.614;8.814;2023-12-20T09:00:36;9.23;;;4.50;;
66270;SDS011;53063;39.614;8.814;2023-12-20T09:03:04;8.60;;;4.57;;
66270;SDS011;53063;39.614;8.814;2023-12-20T09:05:30;10.30;;;4.53;;
66270;SDS011;53063;39.614;8.814;2023-12-20T09:07:56;7.70;;;3.83;;
66270;SDS011;53063;39.614;8.814;2023-12-20T09:10:22;6.25;;;4.05;;
66270;SDS011;53063;39.614;8.814;2023-12-20T09:12:49;6.95;;;4.25;;
66270;SDS011;53063;39.614;8.814;2023-12-20T09:15:16;7.32;;;3.63;;
66270;SDS011;53063;39.614;8.814;2023-12-20T09:17:41;8.63;;;3.55;;
66270;SDS011;53063;39.614;8.814;2023-12-20T09:20:09;7.95;;;3.65;;
66270;SDS011;53063;39.614;8.814;2023-12-20T09:22:35;5.18;;;3.10;;
66270;SDS011;53063;39.614;8.814;2023-12-20T09:25:01;5.05;;;3.47;;
66270;SDS011;53063;39.614;8.814;2023-12-20T09:27:27;5.30;;;3.25;;
66270;SDS011;53063;39.614;8.814;2023-12-20T09:29:53;2.97;;;2.20;;
66270;SDS011;53063;39.614;8.814;2023-12-20T09:32:19;3.95;;;2.15;;
66270;SDS011;53063;39.614;8.814;2023-12-20T09:34:48;5.22;;;2.13;;
66270;SDS011;53063;39.614;8.814;2023-12-20T09:37:14;8.40;;;2.30;;
66270;SDS011;53063;39.614;8.814;2023-12-20T09:39:40;3.15;;;1.88;;
66270;SDS011;53063;39.614;8.814;2023-12-20T09:42:06;3.90;;;2.17;;
66270;SDS011;53063;39.614;8.814;2023-12-20T09:44:33;3.55;;;2.00;;
66270;SDS011;53063;39.614;8.814;2023-12-20T09:47:02;2.78;;;1.75;;
66270;SDS011;53063;39.614;8.814;2023-12-20T09:49:29;7.65;;;3.17;;
66270;SDS011;53063;39.614;8.814;2023-12-20T09:51:56;6.13;;;2.90;;
66270;SDS011;53063;39.614;8.814;2023-12-20T09:54:22;3.00;;;1.80;;
66270;SDS011;53063;39.614;8.814;2023-12-20T09:56:49;6.50;;;2.00;;
66270;SDS011;53063;39.614;8.814;2023-12-20T09:59:15;2.72;;;1.58;;
66270;SDS011;53063;39.614;8.814;2023-12-20T10:01:42;4.10;;;1.75;;
66270;SDS011;53063;39.614;8.814;2023-12-20T10:04:09;2.38;;;1.83;;
66270;SDS011;53063;39.614;8.814;2023-12-20T10:06:46;2.70;;;1.90;;
66270;SDS011;53063;39.614;8.814;2023-12-20T10:09:12;2.65;;;1.95;;
66270;SDS011;53063;39.614;8.814;2023-12-20T10:11:38;7.15;;;3.08;;
66270;SDS011;53063;39.614;8.814;2023-12-20T10:14:06;7.50;;;3.00;;
66270;SDS011;53063;39.614;8.814;2023-12-20T10:16:32;7.18;;;3.30;;
66270;SDS011;53063;39.614;8.814;2023-12-20T10:18:59;5.65;;;3.58;;
66270;SDS011;53063;39.614;8.814;2023-12-20T10:21:29;7.07;;;4.10;;
66270;SDS011;53063;39.614;8.814;2023-12-20T10:23:55;5.75;;;2.90;;
66270;SDS011;53063;39.614;8.814;2023-12-20T10:26:23;8.65;;;3.83;;
66270;SDS011;53063;39.614;8.814;2023-12-20T10:28:54;4.97;;;3.00;;
66270;SDS011;53063;39.614;8.814;2023-12-20T10:31:31;8.10;;;4.78;;
66270;SDS011;53063;39.614;8.814;2023-12-20T10:33:58;8.05;;;4.43;;
66270;SDS011;53063;39.614;8.814;2023-12-20T10:36:25;11.00;;;2.97;;
66270;SDS011;53063;39.614;8.814;2023-12-20T10:38:53;4.75;;;2.80;;
66270;SDS011;53063;39.614;8.814;2023-12-20T10:41:24;7.97;;;2.67;;
66270;SDS011;53063;39.614;8.814;2023-12-20T10:43:55;7.10;;;3.15;;
66270;SDS011;53063;39.614;8.814;2023-12-20T10:46:30;9.90;;;4.13;;
66270;SDS011;53063;39.614;8.814;2023-12-20T10:48:57;6.97;;;3.40;;
66270;SDS011;53063;39.614;8.814;2023-12-20T10:51:24;8.80;;;3.28;;
66270;SDS011;53063;39.614;8.814;2023-12-20T10:53:55;7.88;;;3.97;;
66270;SDS011;53063;39.614;8.814;2023-12-20T10:56:22;6.60;;;3.20;;
66270;SDS011;53063;39.614;8.814;2023-12-20T10:58:50;6.95;;;2.38;;
66270;SDS011;53063;39.614;8.814;2023-12-20T11:01:17;8.00;;;2.40;;
66270;SDS011;53063;39.614;8.814;2023-12-20T11:03:53;8.15;;;2.35;;
66270;SDS011;53063;39.614;8.814;2023-12-20T11:14:25;7.95;;;3.53;;
66270;SDS011;53063;39.614;8.814;2023-12-20T11:17:05;9.10;;;3.22;;
66270;SDS011;53063;39.614;8.814;2023-12-20T11:19:36;13.20;;;3.65;;
66270;SDS011;53063;39.614;8.814;2023-12-20T11:22:04;3.85;;;2.28;;
66270;SDS011;53063;39.614;8.814;2023-12-20T11:24:31;8.70;;;3.28;;
66270;SDS011;53063;39.614;8.814;2023-12-20T11:26:59;10.65;;;5.65;;
66270;SDS011;53063;39.614;8.814;2023-12-20T11:29:35;9.82;;;5.05;;
66270;SDS011;53063;39.614;8.814;2023-12-20T11:32:02;9.55;;;3.63;;
66270;SDS011;53063;39.614;8.814;2023-12-20T11:34:33;10.90;;;4.07;;
66270;SDS011;53063;39.614;8.814;2023-12-20T11:37:02;11.53;;;3.13;;
66270;SDS011;53063;39.614;8.814;2023-12-20T11:39:28;8.30;;;2.80;;
66270;SDS011;53063;39.614;8.814;2023-12-20T11:41:56;10.07;;;3.25;;
66270;SDS011;53063;39.614;8.814;2023-12-20T11:44:27;11.30;;;4.53;;
66270;SDS011;53063;39.614;8.814;2023-12-20T11:46:56;10.73;;;3.80;;
66270;SDS011;53063;39.614;8.814;2023-12-20T11:49:25;9.45;;;3.05;;
66270;SDS011;53063;39.614;8.814;2023-12-20T11:51:51;10.07;;;4.03;;
66270;SDS011;53063;39.614;8.814;2023-12-20T11:54:17;8.93;;;2.92;;
66270;SDS011;53063;39.614;8.814;2023-12-20T11:56:43;7.05;;;2.90;;
66270;SDS011;53063;39.614;8.814;2023-12-20T11:59:09;7.20;;;2.42;;
66270;SDS011;53063;39.614;8.814;2023-12-20T12:01:36;9.00;;;2.25;;
66270;SDS011;53063;39.614;8.814;2023-12-20T12:04:03;9.02;;;2.33;;
66270;SDS011;53063;39.614;8.814;2023-12-20T12:06:29;4.47;;;1.63;;
66270;SDS011;53063;39.614;8.814;2023-12-20T12:08:55;5.57;;;1.98;;
66270;SDS011;53063;39.614;8.814;2023-12-20T12:11:21;10.25;;;2.40;;
66270;SDS011;53063;39.614;8.814;2023-12-20T12:13:48;6.00;;;1.73;;
66270;SDS011;53063;39.614;8.814;2023-12-20T12:16:18;11.18;;;2.67;;
66270;SDS011;53063;39.614;8.814;2023-12-20T12:18:45;10.77;;;2.20;;
66270;SDS011;53063;39.614;8.814;2023-12-20T12:21:18;5.55;;;1.90;;
66270;SDS011;53063;39.614;8.814;2023-12-20T12:23:45;10.45;;;2.30;;
66270;SDS011;53063;39.614;8.814;2023-12-20T12:26:11;8.43;;;2.22;;
66270;SDS011;53063;39.614;8.814;2023-12-20T12:28:39;8.32;;;1.77;;
66270;SDS011;53063;39.614;8.814;2023-12-20T12:31:06;7.43;;;1.83;;
66270;SDS011;53063;39.614;8.814;2023-12-20T12:33:33;9.50;;;1.83;;
66270;SDS011;53063;39.614;8.814;2023-12-20T12:36:00;7.18;;;1.80;;
66270;SDS011;53063;39.614;8.814;2023-12-20T12:38:26;7.75;;;2.47;;
66270;SDS011;53063;39.614;8.814;2023-12-20T12:40:53;15.38;;;3.88;;
66270;SDS011;53063;39.614;8.814;2023-12-20T12:43:19;11.43;;;4.07;;
66270;SDS011;53063;39.614;8.814;2023-12-20T12:45:48;11.73;;;3.40;;
66270;SDS011;53063;39.614;8.814;2023-12-20T12:48:14;14.48;;;2.70;;
66270;SDS011;53063;39.614;8.814;2023-12-20T12:50:40;11.38;;;3.05;;
66270;SDS011;53063;39.614;8.814;2023-12-20T12:53:06;7.38;;;1.90;;
66270;SDS011;53063;39.614;8.814;2023-12-20T12:55:33;6.53;;;2.08;;
66270;SDS011;53063;39.614;8.814;2023-12-20T12:58:00;12.98;;;2.25;;
66270;SDS011;53063;39.614;8.814;2023-12-20T13:00:26;7.45;;;1.77;;
66270;SDS011;53063;39.614;8.814;2023-12-20T13:02:52;9.95;;;2.05;;
66270;SDS011;53063;39.614;8.814;2023-12-20T13:05:18;10.55;;;2.10;;
66270;SDS011;53063;39.614;8.814;2023-12-20T13:07:44;4.68;;;1.95;;
66270;SDS011;53063;39.614;8.814;2023-12-20T13:10:13;8.27;;;1.98;;
66270;SDS011;53063;39.614;8.814;2023-12-20T13:12:42;9.50;;;2.42;;
66270;SDS011;53063;39.614;8.814;2023-12-20T13:15:08;4.53;;;1.55;;
66270;SDS011;53063;39.614;8.814;2023-12-20T13:17:34;7.47;;;2.00;;
66270;SDS011;53063;39.614;8.814;2023-12-20T13:20:00;8.27;;;2.03;;
66270;SDS011;53063;39.614;8.814;2023-12-20T13:22:26;6.72;;;2.10;;
66270;SDS011;53063;39.614;8.814;2023-12-20T13:24:52;3.53;;;1.65;;
66270;SDS011;53063;39.614;8.814;2023-12-20T13:27:18;7.82;;;2.47;;
66270;SDS011;53063;39.614;8.814;2023-12-20T13:29:44;8.15;;;1.90;;
66270;SDS011;53063;39.614;8.814;2023-12-20T13:32:09;8.32;;;1.50;;
66270;SDS011;53063;39.614;8.814;2023-12-20T13:34:36;11.73;;;1.92;;
66270;SDS011;53063;39.614;8.814;2023-12-20T13:37:01;7.13;;;1.77;;
66270;SDS011;53063;39.614;8.814;2023-12-20T13:39:29;5.18;;;1.85;;
66270;SDS011;53063;39.614;8.814;2023-12-20T13:41:56;9.15;;;1.63;;
66270;SDS011;53063;39.614;8.814;2023-12-20T13:44:23;5.05;;;1.50;;
66270;SDS011;53063;39.614;8.814;2023-12-20T13:46:48;5.75;;;2.15;;
66270;SDS011;53063;39.614;8.814;2023-12-20T13:49:15;11.07;;;3.05;;
66270;SDS011;53063;39.614;8.814;2023-12-20T13:51:41;8.57;;;3.47;;
66270;SDS011;53063;39.614;8.814;2023-12-20T13:54:07;10.52;;;3.05;;
66270;SDS011;53063;39.614;8.814;2023-12-20T13:56:33;7.70;;;3.22;;
66270;SDS011;53063;39.614;8.814;2023-12-20T13:58:59;11.40;;;3.10;;
66270;SDS011;53063;39.614;8.814;2023-12-20T14:01:25;15.43;;;4.10;;
66270;SDS011;53063;39.614;8.814;2023-12-20T14:03:51;10.18;;;3.25;;
66270;SDS011;53063;39.614;8.814;2023-12-20T14:06:17;8.55;;;2.50;;
66270;SDS011;53063;39.614;8.814;2023-12-20T14:08:43;5.82;;;1.70;;
66270;SDS011;53063;39.614;8.814;2023-12-20T14:11:09;7.13;;;1.98;;
66270;SDS011;53063;39.614;8.814;2023-12-20T14:13:36;6.85;;;1.77;;
66270;SDS011;53063;39.614;8.814;2023-12-20T14:16:02;5.50;;;1.85;;
66270;SDS011;53063;39.614;8.814;2023-12-20T14:18:29;5.10;;;1.92;;
66270;SDS011;53063;39.614;8.814;2023-12-20T14:20:55;4.38;;;1.80;;
66270;SDS011;53063;39.614;8.814;2023-12-20T14:23:21;5.45;;;2.13;;
66270;SDS011;53063;39.614;8.814;2023-12-20T14:25:48;6.57;;;2.47;;
66270;SDS011;53063;39.614;8.814;2023-12-20T14:28:14;4.53;;;1.70;;
66270;SDS011;53063;39.614;8.814;2023-12-20T14:30:40;9.23;;;2.15;;
66270;SDS011;53063;39.614;8.814;2023-12-20T14:33:06;7.47;;;2.10;;
66270;SDS011;53063;39.614;8.814;2023-12-20T14:35:32;5.63;;;1.88;;
66270;SDS011;53063;39.614;8.814;2023-12-20T14:37:58;9.32;;;2.30;;
66270;SDS011;53063;39.614;8.814;2023-12-20T14:40:24;9.75;;;3.13;;
66270;SDS011;53063;39.614;8.814;2023-12-20T14:42:50;10.82;;;2.92;;
66270;SDS011;53063;39.614;8.814;2023-12-20T14:45:16;13.23;;;2.85;;